createdAt,value
2018-04-10T00:00:19.160Z,993.70
2018-04-10T00:01:19.271Z,993.67
2018-04-10T00:03:12.502Z,993.66
2018-04-10T00:04:12.384Z,993.67
2018-04-10T00:06:05.347Z,993.58
2018-04-10T00:07:05.340Z,993.59
2018-04-10T00:08:58.266Z,993.54
2018-04-10T00:09:58.243Z,993.60
2018-04-10T00:11:51.362Z,993.65
2018-04-10T00:12:51.286Z,993.68
2018-04-10T00:14:44.237Z,993.70
2018-04-10T00:15:44.191Z,993.77
2018-04-10T00:17:37.032Z,993.76
2018-04-10T00:18:36.971Z,993.80
2018-04-10T00:20:29.810Z,993.78
2018-04-10T00:21:29.726Z,993.78
2018-04-10T00:23:22.651Z,993.75
2018-04-10T00:24:22.617Z,993.78
2018-04-10T00:26:15.573Z,993.76
2018-04-10T00:27:15.523Z,993.73
2018-04-10T00:29:08.515Z,993.62
2018-04-10T00:30:08.457Z,993.64
2018-04-10T00:32:01.752Z,993.62
2018-04-10T00:33:01.562Z,993.58
2018-04-10T00:34:54.527Z,993.58
2018-04-10T00:35:54.462Z,993.58
2018-04-10T00:37:47.436Z,993.63
2018-04-10T00:38:47.381Z,993.65
2018-04-10T00:40:40.201Z,993.69
2018-04-10T00:41:40.164Z,993.67
2018-04-10T00:43:33.177Z,993.68
2018-04-10T00:44:33.131Z,993.70
2018-04-10T00:46:26.098Z,993.66
2018-04-10T00:47:26.097Z,993.75
2018-04-10T00:49:19.014Z,993.73
2018-04-10T00:50:18.977Z,993.79
2018-04-10T00:52:11.811Z,993.82
2018-04-10T00:53:11.792Z,993.82
2018-04-10T00:55:04.726Z,993.82
2018-04-10T00:56:04.674Z,993.88
2018-04-10T00:57:57.651Z,993.87
2018-04-10T00:58:57.653Z,993.89
2018-04-10T01:00:50.433Z,993.88
2018-04-10T01:01:50.387Z,993.93
2018-04-10T01:03:43.267Z,993.92
2018-04-10T01:04:43.214Z,993.91
2018-04-10T01:06:36.187Z,993.89
2018-04-10T01:07:36.156Z,993.82
2018-04-10T01:09:29.000Z,993.90
2018-04-10T01:10:28.946Z,993.89
2018-04-10T01:12:21.902Z,993.82
2018-04-10T01:13:21.842Z,993.83
2018-04-10T01:15:14.657Z,993.79
2018-04-10T01:16:14.616Z,993.76
2018-04-10T01:18:07.642Z,993.74
2018-04-10T01:19:07.543Z,993.79
2018-04-10T01:21:00.536Z,993.83
2018-04-10T01:22:00.590Z,993.81
2018-04-10T01:23:53.868Z,993.86
2018-04-10T01:24:53.766Z,993.85
2018-04-10T01:26:46.711Z,993.84
2018-04-10T01:27:46.686Z,993.81
2018-04-10T01:29:39.510Z,993.79
2018-04-10T01:30:39.507Z,993.78
2018-04-10T01:32:32.631Z,993.81
2018-04-10T01:33:32.561Z,993.78
2018-04-10T01:35:25.538Z,993.76
2018-04-10T01:36:25.481Z,993.76
2018-04-10T01:38:18.436Z,993.75
2018-04-10T01:39:18.388Z,993.75
2018-04-10T01:41:11.563Z,993.72
2018-04-10T01:42:11.328Z,993.72
2018-04-10T01:44:04.296Z,993.73
2018-04-10T01:45:04.242Z,993.69
2018-04-10T01:46:57.181Z,993.65
2018-04-10T01:47:57.148Z,993.66
2018-04-10T01:49:49.984Z,993.64
2018-04-10T01:50:49.930Z,993.63
2018-04-10T01:52:43.024Z,993.62
2018-04-10T01:53:42.997Z,993.59
2018-04-10T01:55:35.934Z,993.59
2018-04-10T01:56:35.900Z,993.58
2018-04-10T01:58:28.828Z,993.58
2018-04-10T01:59:28.788Z,993.59
2018-04-10T02:01:21.915Z,993.56
2018-04-10T02:02:21.837Z,993.58
2018-04-10T02:04:14.814Z,993.54
2018-04-10T02:05:14.838Z,993.57
2018-04-10T02:07:07.630Z,993.53
2018-04-10T02:08:07.557Z,993.55
2018-04-10T02:10:00.522Z,993.59
2018-04-10T02:11:00.455Z,993.56
2018-04-10T02:12:53.370Z,993.59
2018-04-10T02:13:53.238Z,993.63
2018-04-10T02:15:46.075Z,993.63
2018-04-10T02:16:46.014Z,993.65
2018-04-10T02:18:38.839Z,993.60
2018-04-10T02:19:38.803Z,993.59
2018-04-10T02:21:31.775Z,993.67
2018-04-10T02:22:31.733Z,993.62
2018-04-10T02:24:24.550Z,993.66
2018-04-10T02:25:24.504Z,993.67
2018-04-10T02:27:17.503Z,993.61
2018-04-10T02:28:17.422Z,993.60
2018-04-10T02:30:10.757Z,993.62
2018-04-10T02:31:10.707Z,993.60
2018-04-10T02:33:03.735Z,993.62
2018-04-10T02:34:03.648Z,993.60
2018-04-10T02:35:56.489Z,993.62
2018-04-10T02:36:56.424Z,993.62
2018-04-10T02:38:49.264Z,993.58
2018-04-10T02:39:49.193Z,993.63
2018-04-10T02:41:42.175Z,993.58
2018-04-10T02:42:42.125Z,993.62
2018-04-10T02:44:34.940Z,993.64
2018-04-10T02:45:34.904Z,993.63
2018-04-10T02:47:27.856Z,993.58
2018-04-10T02:48:27.799Z,993.55
2018-04-10T02:50:20.612Z,993.55
2018-04-10T02:51:20.577Z,993.56
2018-04-10T02:53:13.558Z,993.61
2018-04-10T02:54:13.510Z,993.65
2018-04-10T02:56:06.944Z,993.63
2018-04-10T02:57:06.422Z,993.61
2018-04-10T02:58:59.431Z,993.66
2018-04-10T02:59:59.355Z,993.65
2018-04-10T03:01:52.317Z,993.67
2018-04-10T03:02:52.311Z,993.67
2018-04-10T03:04:45.085Z,993.70
2018-04-10T03:05:45.048Z,993.68
2018-04-10T03:07:38.370Z,993.66
2018-04-10T03:08:38.321Z,993.66
2018-04-10T03:10:31.260Z,993.65
2018-04-10T03:11:31.221Z,993.64
2018-04-10T03:13:24.400Z,993.63
2018-04-10T03:14:24.289Z,993.61
2018-04-10T03:16:17.280Z,993.59
2018-04-10T03:17:17.245Z,993.65
2018-04-10T03:19:10.237Z,993.64
2018-04-10T03:20:10.196Z,993.67
2018-04-10T03:22:03.131Z,993.70
2018-04-10T03:23:02.979Z,993.73
2018-04-10T03:24:55.940Z,993.74
2018-04-10T03:25:55.893Z,993.75
2018-04-10T03:27:48.850Z,993.75
2018-04-10T03:28:48.796Z,993.78
2018-04-10T03:30:42.009Z,993.79
2018-04-10T03:31:41.836Z,993.75
2018-04-10T03:33:34.812Z,993.77
2018-04-10T03:34:34.746Z,993.74
2018-04-10T03:36:27.705Z,993.75
2018-04-10T03:37:27.671Z,993.73
2018-04-10T03:39:20.925Z,993.73
2018-04-10T03:40:20.750Z,993.75
2018-04-10T03:42:13.698Z,993.74
2018-04-10T03:43:13.663Z,993.77
2018-04-10T03:45:06.645Z,993.79
2018-04-10T03:46:06.653Z,993.79
2018-04-10T03:47:59.383Z,993.82
2018-04-10T03:48:59.347Z,993.84
2018-04-10T03:50:52.196Z,993.84
2018-04-10T03:51:52.140Z,993.83
2018-04-10T03:53:45.001Z,993.88
2018-04-10T03:54:44.920Z,993.88
2018-04-10T03:56:37.755Z,993.88
2018-04-10T03:57:37.708Z,993.90
2018-04-10T03:59:30.537Z,993.89
2018-04-10T04:00:30.483Z,993.91
2018-04-10T04:02:23.415Z,993.86
2018-04-10T04:03:23.379Z,993.84
2018-04-10T04:05:16.467Z,993.85
2018-04-10T04:06:16.328Z,993.85
2018-04-10T04:08:09.320Z,993.78
2018-04-10T04:09:09.286Z,993.76
2018-04-10T04:11:02.270Z,993.79
2018-04-10T04:12:02.196Z,993.76
2018-04-10T04:13:55.418Z,993.77
2018-04-10T04:14:55.305Z,993.73
2018-04-10T04:16:48.635Z,993.75
2018-04-10T04:17:48.581Z,993.72
2018-04-10T04:19:41.452Z,993.63
2018-04-10T04:20:41.382Z,993.67
2018-04-10T04:22:34.345Z,993.68
2018-04-10T04:23:34.307Z,993.70
2018-04-10T04:25:27.271Z,993.70
2018-04-10T04:26:27.278Z,993.71
2018-04-10T04:28:20.478Z,993.71
2018-04-10T04:29:20.348Z,993.70
2018-04-10T04:31:13.324Z,993.70
2018-04-10T04:32:13.268Z,993.73
2018-04-10T04:34:06.219Z,993.73
2018-04-10T04:35:06.193Z,993.73
2018-04-10T04:36:59.082Z,993.74
2018-04-10T04:37:59.021Z,993.72
2018-04-10T04:39:51.938Z,993.71
2018-04-10T04:40:51.790Z,993.73
2018-04-10T04:42:45.116Z,993.70
2018-04-10T04:43:45.077Z,993.70
2018-04-10T04:45:38.505Z,993.70
2018-04-10T04:46:37.910Z,993.73
2018-04-10T04:48:30.886Z,993.73
2018-04-10T04:49:30.845Z,993.70
2018-04-10T04:51:23.828Z,993.72
2018-04-10T04:52:23.841Z,993.72
2018-04-10T04:54:16.911Z,993.71
2018-04-10T04:55:16.866Z,993.68
2018-04-10T04:57:09.811Z,993.75
2018-04-10T04:58:09.753Z,993.73
2018-04-10T05:00:02.567Z,993.74
2018-04-10T05:01:02.534Z,993.75
2018-04-10T05:02:55.483Z,993.70
2018-04-10T05:03:55.451Z,993.66
2018-04-10T05:05:48.512Z,993.67
2018-04-10T05:06:48.472Z,993.72
2018-04-10T05:08:41.454Z,993.73
2018-04-10T05:09:41.409Z,993.73
2018-04-10T05:11:34.352Z,993.73
2018-04-10T05:12:34.314Z,993.72
2018-04-10T05:14:27.132Z,993.71
2018-04-10T05:15:27.133Z,993.73
2018-04-10T05:17:20.528Z,993.72
2018-04-10T05:18:19.860Z,993.76
2018-04-10T05:20:12.679Z,993.78
2018-04-10T05:21:12.631Z,993.78
2018-04-10T05:23:05.609Z,993.81
2018-04-10T05:24:05.653Z,993.83
2018-04-10T05:25:58.868Z,993.85
2018-04-10T05:26:58.822Z,993.85
2018-04-10T05:28:51.784Z,993.87
2018-04-10T05:29:51.733Z,993.94
2018-04-10T05:31:44.718Z,993.94
2018-04-10T05:32:44.658Z,993.95
2018-04-10T05:34:37.528Z,993.97
2018-04-10T05:35:37.452Z,993.95
2018-04-10T05:37:30.354Z,993.95
2018-04-10T05:38:30.235Z,994.01
2018-04-10T05:40:23.206Z,993.96
2018-04-10T05:41:23.164Z,994.01
2018-04-10T05:43:16.600Z,993.98
2018-04-10T05:44:16.444Z,994.00
2018-04-10T05:46:09.400Z,994.01
2018-04-10T05:47:09.368Z,994.04
2018-04-10T05:49:02.356Z,994.04
2018-04-10T05:50:02.313Z,994.09
2018-04-10T05:51:55.215Z,994.11
2018-04-10T05:52:55.142Z,994.10
2018-04-10T05:54:48.109Z,994.11
2018-04-10T05:55:48.059Z,994.13
2018-04-10T05:57:41.027Z,994.18
2018-04-10T05:58:41.093Z,994.20
2018-04-10T06:00:34.291Z,994.26
2018-04-10T06:01:34.067Z,994.26
2018-04-10T06:03:27.057Z,994.34
2018-04-10T06:04:27.010Z,994.32
2018-04-10T06:06:19.978Z,994.35
2018-04-10T06:07:19.928Z,994.35
2018-04-10T06:09:13.107Z,994.31
2018-04-10T06:10:13.080Z,994.30
2018-04-10T06:12:05.938Z,994.32
2018-04-10T06:13:05.884Z,994.32
2018-04-10T06:14:58.701Z,994.33
2018-04-10T06:15:58.653Z,994.35
2018-04-10T06:17:51.614Z,994.37
2018-04-10T06:18:51.565Z,994.36
2018-04-10T06:20:44.414Z,994.40
2018-04-10T06:21:44.355Z,994.44
2018-04-10T06:23:37.344Z,994.47
2018-04-10T06:24:37.292Z,994.44
2018-04-10T06:26:30.308Z,994.42
2018-04-10T06:27:30.339Z,994.46
2018-04-10T06:29:23.444Z,994.52
2018-04-10T06:30:23.379Z,994.51
2018-04-10T06:32:16.354Z,994.54
2018-04-10T06:33:16.287Z,994.57
2018-04-10T06:35:09.299Z,994.67
2018-04-10T06:36:09.213Z,994.66
2018-04-10T06:38:02.124Z,994.69
2018-04-10T06:39:02.112Z,994.68
2018-04-10T06:40:55.077Z,994.72
2018-04-10T06:41:55.028Z,994.75
2018-04-10T06:43:47.997Z,994.71
2018-04-10T06:44:47.989Z,994.78
2018-04-10T06:46:41.200Z,994.77
2018-04-10T06:47:41.100Z,994.80
2018-04-10T06:49:33.899Z,994.84
2018-04-10T06:50:33.866Z,994.83
2018-04-10T06:52:26.860Z,994.92
2018-04-10T06:53:26.794Z,994.85
2018-04-10T06:55:20.046Z,994.94
2018-04-10T06:56:19.888Z,994.93
2018-04-10T06:58:12.835Z,994.96
2018-04-10T06:59:12.786Z,994.96
2018-04-10T07:01:05.839Z,994.99
2018-04-10T07:02:05.797Z,995.05
2018-04-10T07:03:58.903Z,995.11
2018-04-10T07:04:58.870Z,995.15
2018-04-10T07:06:51.825Z,995.13
2018-04-10T07:07:51.816Z,995.12
2018-04-10T07:09:44.606Z,995.11
2018-04-10T07:10:44.571Z,995.13
2018-04-10T07:12:37.419Z,995.09
2018-04-10T07:13:37.350Z,995.10
2018-04-10T07:15:30.341Z,995.06
2018-04-10T07:16:30.302Z,995.03
2018-04-10T07:18:23.333Z,995.06
2018-04-10T07:19:23.408Z,995.06
2018-04-10T07:21:16.223Z,995.08
2018-04-10T07:22:16.199Z,995.09
2018-04-10T07:24:09.029Z,995.07
2018-04-10T07:25:08.980Z,995.10
2018-04-10T07:27:01.941Z,995.15
2018-04-10T07:28:01.920Z,995.16
2018-04-10T07:29:54.770Z,995.22
2018-04-10T07:30:54.708Z,995.25
2018-04-10T07:32:47.697Z,995.24
2018-04-10T07:33:47.641Z,995.23
2018-04-10T07:35:40.462Z,995.23
2018-04-10T07:36:40.451Z,995.22
2018-04-10T07:38:33.441Z,995.23
2018-04-10T07:39:33.381Z,995.23
2018-04-10T07:41:26.203Z,995.22
2018-04-10T07:42:26.170Z,995.20
2018-04-10T07:44:19.150Z,995.24
2018-04-10T07:45:19.103Z,995.21
2018-04-10T07:47:12.222Z,995.21
2018-04-10T07:48:12.142Z,995.19
2018-04-10T07:50:05.493Z,995.18
2018-04-10T07:51:05.420Z,995.16
2018-04-10T07:52:58.417Z,995.16
2018-04-10T07:53:58.385Z,995.13
2018-04-10T07:55:51.364Z,995.12
2018-04-10T07:56:51.322Z,995.15
2018-04-10T07:58:44.656Z,995.13
2018-04-10T07:59:44.536Z,995.17
2018-04-10T08:01:37.511Z,995.21
2018-04-10T08:02:37.479Z,995.21
2018-04-10T08:04:30.910Z,995.29
2018-04-10T08:05:30.773Z,995.36
2018-04-10T08:07:23.743Z,995.33
2018-04-10T08:08:23.706Z,995.36
2018-04-10T08:10:16.554Z,995.37
2018-04-10T08:11:16.539Z,995.33
2018-04-10T08:13:09.701Z,995.38
2018-04-10T08:14:09.642Z,995.38
2018-04-10T08:16:02.602Z,995.41
2018-04-10T08:17:02.533Z,995.43
2018-04-10T08:18:55.485Z,995.45
2018-04-10T08:19:55.464Z,995.50
2018-04-10T08:21:48.367Z,995.55
2018-04-10T08:22:48.320Z,995.56
2018-04-10T08:24:41.326Z,995.62
2018-04-10T08:25:41.267Z,995.62
2018-04-10T08:27:34.251Z,995.66
2018-04-10T08:28:34.259Z,995.70
2018-04-10T08:30:27.046Z,995.73
2018-04-10T08:31:26.992Z,995.73
2018-04-10T08:33:19.813Z,995.73
2018-04-10T08:34:19.776Z,995.73
2018-04-10T08:36:13.857Z,995.75
2018-04-10T08:37:13.786Z,995.73
2018-04-10T08:39:06.736Z,995.78
2018-04-10T08:40:06.748Z,995.79
2018-04-10T08:41:59.957Z,995.80
2018-04-10T08:42:59.905Z,995.82
2018-04-10T08:44:52.871Z,995.76
2018-04-10T08:45:52.864Z,995.78
2018-04-10T08:47:46.100Z,995.75
2018-04-10T08:48:45.919Z,995.77
2018-04-10T08:50:38.881Z,995.75
2018-04-10T08:51:38.839Z,995.76
2018-04-10T08:53:31.810Z,995.77
2018-04-10T08:54:31.817Z,995.71
2018-04-10T08:56:25.009Z,995.74
2018-04-10T08:57:24.884Z,995.77
2018-04-10T08:59:17.836Z,995.76
2018-04-10T09:00:17.803Z,995.76
2018-04-10T09:02:10.833Z,995.81
2018-04-10T09:03:10.734Z,995.82
2018-04-10T09:05:03.607Z,995.86
2018-04-10T09:06:03.575Z,995.88
2018-04-10T09:07:56.533Z,995.91
2018-04-10T09:08:56.481Z,995.89
2018-04-10T09:10:49.422Z,995.95
2018-04-10T09:11:49.397Z,995.90
2018-04-10T09:13:42.708Z,995.96
2018-04-10T09:14:42.487Z,995.95
2018-04-10T09:16:35.441Z,995.94
2018-04-10T09:17:35.403Z,995.93
2018-04-10T09:19:28.222Z,995.87
2018-04-10T09:20:28.192Z,995.84
2018-04-10T09:22:21.171Z,995.87
2018-04-10T09:23:21.137Z,995.84
2018-04-10T09:25:14.027Z,995.87
2018-04-10T09:26:13.992Z,995.88
2018-04-10T09:28:07.304Z,995.85
2018-04-10T09:29:07.273Z,995.79
2018-04-10T09:31:00.067Z,995.79
2018-04-10T09:32:00.033Z,995.81
2018-04-10T09:33:52.986Z,995.85
2018-04-10T09:34:52.838Z,995.86
2018-04-10T09:36:45.808Z,995.90
2018-04-10T09:37:45.772Z,995.85
2018-04-10T09:39:38.602Z,995.85
2018-04-10T09:40:38.551Z,995.81
2018-04-10T09:42:31.507Z,995.83
2018-04-10T09:43:31.467Z,995.82
2018-04-10T09:45:24.354Z,995.90
2018-04-10T09:46:24.292Z,995.90
2018-04-10T09:48:17.272Z,995.93
2018-04-10T09:49:17.209Z,995.91
2018-04-10T09:51:10.178Z,995.96
2018-04-10T09:52:10.218Z,996.00
2018-04-10T09:54:03.152Z,995.98
2018-04-10T09:55:03.101Z,995.89
2018-04-10T09:56:56.032Z,995.86
2018-04-10T09:57:56.001Z,995.90
2018-04-10T09:59:48.999Z,995.92
2018-04-10T10:00:48.960Z,995.96
2018-04-10T10:02:41.761Z,996.01
2018-04-10T10:03:41.740Z,996.00
2018-04-10T10:05:34.702Z,995.94
2018-04-10T10:06:34.606Z,995.96
2018-04-10T10:08:27.589Z,995.94
2018-04-10T10:09:27.513Z,995.93
2018-04-10T10:11:20.534Z,995.98
2018-04-10T10:12:20.461Z,996.03
2018-04-10T10:14:13.299Z,996.04
2018-04-10T10:15:13.235Z,996.10
2018-04-10T10:17:06.094Z,996.13
2018-04-10T10:18:06.046Z,996.14
2018-04-10T10:19:59.037Z,996.21
2018-04-10T10:20:58.849Z,996.16
2018-04-10T10:22:51.814Z,996.14
2018-04-10T10:23:51.772Z,996.22
2018-04-10T10:25:44.753Z,996.23
2018-04-10T10:26:44.710Z,996.22
2018-04-10T10:28:37.518Z,996.21
2018-04-10T10:29:37.486Z,996.16
2018-04-10T10:31:30.509Z,996.21
2018-04-10T10:32:30.453Z,996.19
2018-04-10T10:34:23.421Z,996.16
2018-04-10T10:35:23.392Z,996.16
2018-04-10T10:37:16.745Z,996.17
2018-04-10T10:38:16.662Z,996.18
2018-04-10T10:40:09.628Z,996.20
2018-04-10T10:41:09.621Z,996.24
2018-04-10T10:43:02.864Z,996.17
2018-04-10T10:44:02.712Z,996.19
2018-04-10T10:45:55.687Z,996.21
2018-04-10T10:46:55.633Z,996.22
2018-04-10T10:48:48.633Z,996.24
2018-04-10T10:49:48.609Z,996.23
2018-04-10T10:51:41.465Z,996.19
2018-04-10T10:52:41.432Z,996.17
2018-04-10T10:54:34.421Z,996.16
2018-04-10T10:55:34.372Z,996.17
2018-04-10T10:57:27.314Z,996.15
2018-04-10T10:58:27.291Z,996.14
2018-04-10T11:00:20.110Z,996.11
2018-04-10T11:01:20.103Z,996.12
2018-04-10T11:03:12.943Z,996.09
2018-04-10T11:04:12.891Z,996.10
2018-04-10T11:06:05.910Z,996.06
2018-04-10T11:07:05.726Z,996.04
2018-04-10T11:08:58.685Z,996.08
2018-04-10T11:09:58.640Z,996.05
2018-04-10T11:11:51.644Z,996.05
2018-04-10T11:12:51.591Z,996.05
2018-04-10T11:14:44.393Z,996.05
2018-04-10T11:15:44.369Z,996.10
2018-04-10T11:17:37.404Z,996.10
2018-04-10T11:18:37.321Z,996.06
2018-04-10T11:20:30.143Z,996.07
2018-04-10T11:21:30.114Z,996.06
2018-04-10T11:23:23.121Z,995.99
2018-04-10T11:24:23.035Z,995.99
2018-04-10T11:26:15.868Z,995.98
2018-04-10T11:27:15.846Z,995.99
2018-04-10T11:29:08.877Z,995.97
2018-04-10T11:30:08.797Z,995.99
2018-04-10T11:32:01.613Z,995.94
2018-04-10T11:33:01.571Z,995.95
2018-04-10T11:34:54.548Z,995.94
2018-04-10T11:35:54.500Z,995.87
2018-04-10T11:37:47.736Z,995.85
2018-04-10T11:38:47.662Z,995.84
2018-04-10T11:40:40.630Z,995.84
2018-04-10T11:41:40.558Z,995.83
2018-04-10T11:43:33.537Z,995.83
2018-04-10T11:44:33.479Z,995.86
2018-04-10T11:46:26.550Z,995.81
2018-04-10T11:47:26.507Z,995.77
2018-04-10T11:49:19.517Z,995.72
2018-04-10T11:50:19.579Z,995.69
2018-04-10T11:52:12.438Z,995.66
2018-04-10T11:53:12.379Z,995.59
2018-04-10T11:55:05.437Z,995.63
2018-04-10T11:56:05.361Z,995.56
2018-04-10T11:57:58.334Z,995.58
2018-04-10T11:58:58.304Z,995.58
2018-04-10T12:00:51.257Z,995.59
2018-04-10T12:01:51.224Z,995.58
2018-04-10T12:03:44.336Z,995.61
2018-04-10T12:04:44.291Z,995.63
2018-04-10T12:06:37.276Z,995.60
2018-04-10T12:07:37.283Z,995.58
2018-04-10T12:09:30.061Z,995.55
2018-04-10T12:10:30.008Z,995.54
2018-04-10T12:12:22.956Z,995.49
2018-04-10T12:13:22.877Z,995.46
2018-04-10T12:15:15.873Z,995.43
2018-04-10T12:16:15.828Z,995.46
2018-04-10T12:18:09.243Z,995.43
2018-04-10T12:19:09.128Z,995.44
2018-04-10T12:21:02.111Z,995.42
2018-04-10T12:22:02.034Z,995.42
2018-04-10T12:23:54.973Z,995.47
2018-04-10T12:24:55.021Z,995.50
2018-04-10T12:26:48.293Z,995.48
2018-04-10T12:27:48.252Z,995.50
2018-04-10T12:29:41.579Z,995.52
2018-04-10T12:30:41.559Z,995.48
2018-04-10T12:32:34.502Z,995.48
2018-04-10T12:33:34.457Z,995.52
2018-04-10T12:35:27.416Z,995.52
2018-04-10T12:36:27.402Z,995.55
2018-04-10T12:38:20.685Z,995.58
2018-04-10T12:39:20.487Z,995.54
2018-04-10T12:41:13.642Z,995.58
2018-04-10T12:42:13.683Z,995.58
2018-04-10T12:44:06.698Z,995.58
2018-04-10T12:45:06.660Z,995.62
2018-04-10T12:46:59.641Z,995.59
2018-04-10T12:47:59.613Z,995.59
2018-04-10T12:49:52.446Z,995.54
2018-04-10T12:50:52.384Z,995.51
2018-04-10T12:52:45.385Z,995.52
2018-04-10T12:53:45.313Z,995.52
2018-04-10T12:55:38.401Z,995.51
2018-04-10T12:56:38.264Z,995.52
2018-04-10T12:58:31.242Z,995.52
2018-04-10T12:59:31.198Z,995.53
2018-04-10T13:01:24.167Z,995.51
2018-04-10T13:02:24.139Z,995.50
2018-04-10T13:04:17.187Z,995.51
2018-04-10T13:05:17.008Z,995.54
2018-04-10T13:07:09.981Z,995.58
2018-04-10T13:08:09.956Z,995.45
2018-04-10T13:10:02.787Z,995.38
2018-04-10T13:11:02.739Z,995.41
2018-04-10T13:12:55.862Z,995.38
2018-04-10T13:13:55.861Z,995.36
2018-04-10T13:15:48.797Z,995.34
2018-04-10T13:16:48.741Z,995.30
2018-04-10T13:18:41.591Z,995.29
2018-04-10T13:19:41.562Z,995.32
2018-04-10T13:21:34.513Z,995.31
2018-04-10T13:22:34.475Z,995.36
2018-04-10T13:24:27.331Z,995.51
2018-04-10T13:25:27.271Z,995.43
2018-04-10T13:27:20.276Z,995.44
2018-04-10T13:28:20.229Z,995.49
2018-04-10T13:30:13.037Z,995.57
2018-04-10T13:31:13.004Z,995.50
2018-04-10T13:33:05.975Z,995.29
2018-04-10T13:34:05.946Z,995.34
2018-04-10T13:35:58.971Z,995.37
2018-04-10T13:36:58.728Z,995.42
2018-04-10T13:38:51.708Z,995.39
2018-04-10T13:39:51.662Z,995.26
2018-04-10T13:41:44.640Z,995.34
2018-04-10T13:42:44.650Z,995.29
2018-04-10T13:44:37.913Z,995.30
2018-04-10T13:45:37.757Z,995.37
2018-04-10T13:47:30.769Z,995.34
2018-04-10T13:48:30.756Z,995.22
2018-04-10T13:50:23.573Z,995.26
2018-04-10T13:51:23.592Z,995.31
2018-04-10T13:53:16.785Z,995.34
2018-04-10T13:54:16.641Z,995.33
2018-04-10T13:56:09.606Z,995.33
2018-04-10T13:57:09.571Z,995.25
2018-04-10T13:59:02.544Z,995.27
2018-04-10T14:00:02.512Z,995.24
2018-04-10T14:01:55.562Z,995.27
2018-04-10T14:02:55.390Z,995.27
2018-04-10T14:04:48.378Z,995.28
2018-04-10T14:05:48.351Z,995.23
2018-04-10T14:07:41.278Z,995.22
2018-04-10T14:08:41.295Z,995.20
2018-04-10T14:10:34.103Z,995.15
2018-04-10T14:11:34.038Z,995.09
2018-04-10T14:13:27.029Z,995.14
2018-04-10T14:14:26.926Z,995.14
2018-04-10T14:16:19.918Z,995.10
2018-04-10T14:17:19.888Z,995.13
2018-04-10T14:19:12.842Z,995.11
2018-04-10T14:20:12.822Z,995.08
2018-04-10T14:22:05.668Z,995.04
2018-04-10T14:23:05.636Z,995.00
2018-04-10T14:24:58.641Z,995.01
2018-04-10T14:25:58.596Z,994.93
2018-04-10T14:27:51.567Z,994.97
2018-04-10T14:28:51.547Z,994.94
2018-04-10T14:30:45.979Z,994.92
2018-04-10T14:31:44.674Z,994.92
2018-04-10T14:33:37.715Z,994.86
2018-04-10T14:34:37.704Z,994.89
2018-04-10T14:36:30.692Z,994.78
2018-04-10T14:37:30.632Z,994.79
2018-04-10T14:39:23.686Z,994.79
2018-04-10T14:40:23.655Z,994.81
2018-04-10T14:42:16.660Z,994.80
2018-04-10T14:43:16.627Z,994.76
2018-04-10T14:45:09.758Z,994.77
2018-04-10T14:46:09.699Z,994.73
2018-04-10T14:48:02.705Z,994.81
2018-04-10T14:49:02.649Z,994.74
2018-04-10T14:50:55.503Z,994.75
2018-04-10T14:51:55.464Z,994.76
2018-04-10T14:53:48.753Z,994.77
2018-04-10T14:54:48.661Z,994.78
2018-04-10T14:56:41.666Z,994.73
2018-04-10T14:57:41.595Z,994.78
2018-04-10T14:59:34.434Z,994.72
2018-04-10T15:00:34.401Z,994.78
2018-04-10T15:02:27.637Z,994.75
2018-04-10T15:03:27.576Z,994.73
2018-04-10T15:05:20.514Z,994.74
2018-04-10T15:06:20.521Z,994.75
2018-04-10T15:08:13.500Z,994.78
2018-04-10T15:09:13.433Z,994.73
2018-04-10T15:11:06.258Z,994.74
2018-04-10T15:12:06.243Z,994.73
2018-04-10T15:13:59.225Z,994.75
2018-04-10T15:14:59.182Z,994.77
2018-04-10T15:16:52.159Z,994.74
2018-04-10T15:17:52.139Z,994.73
2018-04-10T15:19:45.101Z,994.72
2018-04-10T15:20:45.050Z,994.70
2018-04-10T15:22:38.046Z,994.69
2018-04-10T15:23:37.990Z,994.68
2018-04-10T15:25:30.961Z,994.67
2018-04-10T15:26:30.937Z,994.69
2018-04-10T15:28:24.090Z,994.65
2018-04-10T15:29:24.030Z,994.66
2018-04-10T15:31:17.028Z,994.67
2018-04-10T15:32:16.990Z,994.67
2018-04-10T15:34:10.130Z,994.64
2018-04-10T15:35:09.916Z,994.64
2018-04-10T15:37:02.749Z,994.55
2018-04-10T15:38:02.707Z,994.61
2018-04-10T15:39:55.701Z,994.66
2018-04-10T15:40:55.502Z,994.66
2018-04-10T15:42:48.497Z,994.59
2018-04-10T15:43:48.450Z,994.58
2018-04-10T15:45:41.427Z,994.51
2018-04-10T15:46:41.393Z,994.53
2018-04-10T15:48:34.247Z,994.44
2018-04-10T15:49:34.170Z,994.45
2018-04-10T15:51:27.175Z,994.42
2018-04-10T15:52:26.986Z,994.41
2018-04-10T15:54:20.014Z,994.41
2018-04-10T15:55:19.949Z,994.37
2018-04-10T15:57:12.777Z,994.36
2018-04-10T15:58:12.771Z,994.34
2018-04-10T16:00:05.974Z,994.30
2018-04-10T16:01:05.885Z,994.31
2018-04-10T16:02:58.847Z,994.25
2018-04-10T16:03:58.818Z,994.27
2018-04-10T16:05:51.859Z,994.25
2018-04-10T16:06:51.770Z,994.22
2018-04-10T16:08:44.597Z,994.25
2018-04-10T16:09:44.606Z,994.27
2018-04-10T16:11:37.690Z,994.25
2018-04-10T16:12:37.650Z,994.28
2018-04-10T16:14:30.524Z,994.27
2018-04-10T16:15:30.466Z,994.24
2018-04-10T16:17:23.689Z,994.31
2018-04-10T16:18:23.574Z,994.29
2018-04-10T16:20:16.434Z,994.30
2018-04-10T16:21:16.358Z,994.26
2018-04-10T16:23:09.371Z,994.27
2018-04-10T16:24:09.315Z,994.25
2018-04-10T16:26:02.555Z,994.25
2018-04-10T16:27:02.417Z,994.24
2018-04-10T16:28:55.230Z,994.23
2018-04-10T16:29:55.208Z,994.20
2018-04-10T16:31:48.201Z,994.22
2018-04-10T16:32:48.145Z,994.19
2018-04-10T16:34:41.355Z,994.19
2018-04-10T16:35:41.332Z,994.17
2018-04-10T16:37:34.339Z,994.22
2018-04-10T16:38:34.268Z,994.26
2018-04-10T16:40:27.085Z,994.32
2018-04-10T16:41:27.065Z,994.34
2018-04-10T16:43:20.283Z,994.39
2018-04-10T16:44:20.231Z,994.43
2018-04-10T16:46:13.220Z,994.45
2018-04-10T16:47:13.281Z,994.45
2018-04-10T16:49:06.517Z,994.48
2018-04-10T16:50:06.352Z,994.49
2018-04-10T16:51:59.343Z,994.47
2018-04-10T16:52:59.313Z,994.49
2018-04-10T16:54:52.650Z,994.54
2018-04-10T16:55:52.621Z,994.57
2018-04-10T16:57:45.630Z,994.62
2018-04-10T16:58:45.577Z,994.64
2018-04-10T17:00:38.397Z,994.65
2018-04-10T17:01:38.347Z,994.66
2018-04-10T17:03:31.641Z,994.68
2018-04-10T17:04:31.478Z,994.67
2018-04-10T17:06:24.476Z,994.64
2018-04-10T17:07:24.445Z,994.60
2018-04-10T17:09:17.250Z,994.54
2018-04-10T17:10:17.286Z,994.52
2018-04-10T17:12:10.436Z,994.48
2018-04-10T17:13:10.347Z,994.44
2018-04-10T17:15:03.347Z,994.44
2018-04-10T17:16:03.305Z,994.42
2018-04-10T17:17:56.329Z,994.42
2018-04-10T17:18:56.264Z,994.49
2018-04-10T17:20:49.107Z,994.51
2018-04-10T17:21:49.065Z,994.52
2018-04-10T17:23:42.060Z,994.50
2018-04-10T17:24:41.990Z,994.53
2018-04-10T17:26:35.335Z,994.57
2018-04-10T17:27:35.292Z,994.62
2018-04-10T17:29:28.201Z,994.63
2018-04-10T17:30:28.076Z,994.62
2018-04-10T17:32:20.900Z,994.64
2018-04-10T17:33:20.853Z,994.61
2018-04-10T17:35:13.853Z,994.57
2018-04-10T17:36:13.812Z,994.56
2018-04-10T17:38:06.629Z,994.53
2018-04-10T17:39:06.602Z,994.53
2018-04-10T17:40:59.393Z,994.54
2018-04-10T17:41:59.361Z,994.55
2018-04-10T17:43:52.391Z,994.54
2018-04-10T17:44:52.339Z,994.52
2018-04-10T17:46:45.322Z,994.51
2018-04-10T17:47:45.280Z,994.51
2018-04-10T17:49:38.149Z,994.57
2018-04-10T17:50:38.066Z,994.65
2018-04-10T17:52:30.910Z,994.79
2018-04-10T17:53:30.874Z,994.96
2018-04-10T17:55:23.867Z,995.12
2018-04-10T17:56:23.838Z,995.24
2018-04-10T17:58:16.785Z,995.36